Time;durP1;ratioP1;P1;durP2;ratioP2;P2;SDS_P1;SDS_P2;PMS_P1;PMS_P2;Temp;Humidity;BMP_temperature;BMP_pressure;BME280_temperature;BME280_humidity;BME280_pressure;Samples;Min_cycle;Max_cycle;Signal;HPM_P1;HPM_P2
2023/01/14 00:00:48;;;;;;;4.70;1.63;;;5.50;99.90;;;;;;5033284;28;20245;-83
2023/01/14 00:03:13;;;;;;;9.67;2.40;;;5.50;99.90;;;;;;5015596;28;20174;-84
2023/01/14 00:05:39;;;;;;;6.53;2.00;;;5.50;99.90;;;;;;5015964;28;20271;-83
2023/01/14 00:08:04;;;;;;;5.70;1.97;;;5.50;99.90;;;;;;5015497;28;20211;-83
2023/01/14 00:10:30;;;;;;;4.47;1.73;;;5.60;99.90;;;;;;5033036;28;20214;-83
2023/01/14 00:12:56;;;;;;;5.63;1.90;;;5.60;99.90;;;;;;5033281;28;20209;-84
2023/01/14 00:15:21;;;;;;;6.57;1.60;;;5.60;99.90;;;;;;5015600;28;20214;-83
2023/01/14 00:17:48;;;;;;;9.93;1.80;;;5.60;99.90;;;;;;5015439;28;20540;-83
2023/01/14 00:20:14;;;;;;;4.30;2.00;;;5.60;99.90;;;;;;5032958;28;20255;-83
2023/01/14 00:22:40;;;;;;;7.40;2.07;;;5.50;99.90;;;;;;5015121;28;20233;-83
2023/01/14 00:25:06;;;;;;;9.10;1.80;;;5.60;99.90;;;;;;5015313;28;20525;-83
2023/01/14 00:27:32;;;;;;;5.27;1.93;;;5.60;99.90;;;;;;5032829;28;20649;-83
2023/01/14 00:29:57;;;;;;;5.47;1.70;;;5.60;99.90;;;;;;5015173;28;20240;-83
2023/01/14 00:32:23;;;;;;;7.03;1.87;;;5.50;99.90;;;;;;5032707;28;20177;-83
2023/01/14 00:34:48;;;;;;;5.93;1.87;;;5.60;99.90;;;;;;5032776;28;20577;-83
2023/01/14 00:37:14;;;;;;;6.93;2.03;;;5.60;99.90;;;;;;5014959;28;20603;-83
2023/01/14 00:39:39;;;;;;;8.63;2.10;;;5.60;99.90;;;;;;5014866;28;20177;-83
2023/01/14 00:42:05;;;;;;;7.77;2.00;;;5.50;99.90;;;;;;5032763;28;20224;-83
2023/01/14 00:44:30;;;;;;;6.83;1.80;;;5.50;99.90;;;;;;5014945;28;20184;-83
2023/01/14 00:46:56;;;;;;;6.07;1.67;;;5.50;99.90;;;;;;5032530;28;20261;-83
2023/01/14 00:49:23;;;;;;;7.70;1.50;;;5.50;99.90;;;;;;5032704;28;20178;-83
2023/01/14 00:51:50;;;;;;;4.43;1.63;;;5.50;99.90;;;;;;5014716;28;20174;-83
2023/01/14 00:54:16;;;;;;;3.20;1.50;;;5.50;99.90;;;;;;5015074;28;20199;-83
2023/01/14 00:56:42;;;;;;;6.00;1.60;;;5.50;99.90;;;;;;5032527;28;20263;-83
2023/01/14 00:59:19;;;;;;;6.17;1.80;;;5.50;99.90;;;;;;5015003;28;20585;-83
2023/01/14 01:01:45;;;;;;;6.07;1.93;;;5.50;99.90;;;;;;5014531;28;20571;-83
2023/01/14 01:04:11;;;;;;;6.33;1.63;;;5.50;99.90;;;;;;5014552;28;20179;-83
2023/01/14 01:06:36;;;;;;;7.20;1.70;;;5.50;99.90;;;;;;5014856;28;20581;-83
2023/01/14 01:09:03;;;;;;;5.30;1.53;;;5.50;99.90;;;;;;5014597;28;20179;-83
2023/01/14 01:11:30;;;;;;;6.43;1.50;;;5.50;99.90;;;;;;5078657;22;20263;-83
2023/01/14 01:13:57;;;;;;;5.27;1.53;;;5.50;99.90;;;;;;4997418;28;20179;-83
2023/01/14 01:16:25;;;;;;;4.53;1.80;;;5.50;99.90;;;;;;5015453;28;20203;-84
2023/01/14 01:18:53;;;;;;;4.83;1.50;;;5.50;99.90;;;;;;5016075;28;20229;-83
2023/01/14 01:21:20;;;;;;;4.03;1.73;;;5.50;99.90;;;;;;4997996;28;20281;-83
2023/01/14 01:23:46;;;;;;;8.13;2.00;;;5.50;99.90;;;;;;4998135;28;20175;-83
2023/01/14 01:26:18;;;;;;;7.87;1.70;;;5.50;99.90;;;;;;4997912;28;20186;-82
2023/01/14 01:28:48;;;;;;;5.63;1.50;;;5.50;99.90;;;;;;5015270;28;20703;-83
2023/01/14 01:31:14;;;;;;;6.00;1.60;;;5.50;99.90;;;;;;5015281;28;20710;-82
2023/01/14 01:33:40;;;;;;;6.77;1.70;;;5.50;99.90;;;;;;5015066;28;20536;-82
2023/01/14 01:36:10;;;;;;;4.63;1.60;;;5.40;99.90;;;;;;4997787;28;20209;-83
2023/01/14 01:38:36;;;;;;;8.70;2.00;;;5.40;99.90;;;;;;4998165;28;20248;-82
2023/01/14 01:41:02;;;;;;;6.07;1.90;;;5.50;99.90;;;;;;4997518;28;20724;-83
2023/01/14 01:43:31;;;;;;;6.63;2.13;;;5.50;99.90;;;;;;5015181;28;20171;-82
2023/01/14 01:45:57;;;;;;;6.93;2.10;;;5.50;99.90;;;;;;5015627;28;20189;-83
2023/01/14 01:48:38;;;;;;;3.93;1.90;;;5.60;99.90;;;;;;5015508;28;20669;-83
2023/01/14 01:51:18;;;;;;;6.07;1.90;;;5.50;99.90;;;;;;5001521;28;20195;-82
2023/01/14 01:53:48;;;;;;;4.57;1.67;;;5.60;99.90;;;;;;5001565;28;20673;-83
2023/01/14 01:56:19;;;;;;;8.03;2.00;;;5.60;99.90;;;;;;5001795;28;20228;-83
2023/01/14 01:58:44;;;;;;;5.37;1.90;;;5.60;99.90;;;;;;5018788;28;20716;-83
2023/01/14 02:01:12;;;;;;;6.90;1.90;;;5.60;99.90;;;;;;5000637;28;20234;-84
2023/01/14 02:03:43;;;;;;;7.50;2.00;;;5.60;99.90;;;;;;5001688;28;20175;-82
2023/01/14 02:06:10;;;;;;;7.07;1.90;;;5.60;99.90;;;;;;5000896;28;20209;-83
2023/01/14 02:08:38;;;;;;;5.07;1.97;;;5.70;99.90;;;;;;5001692;28;20270;-83
2023/01/14 02:11:29;;;;;;;8.57;1.97;;;5.70;99.90;;;;;;5000903;28;20257;-82
2023/01/14 02:14:16;;;;;;;6.20;2.00;;;5.70;99.90;;;;;;5001233;28;20179;-83
2023/01/14 02:16:58;;;;;;;4.70;1.73;;;5.60;99.90;;;;;;5018943;28;20175;-83
2023/01/14 02:19:51;;;;;;;9.63;2.00;;;5.60;99.90;;;;;;5000983;28;20175;-82
2023/01/14 02:22:59;;;;;;;8.97;2.37;;;5.70;99.90;;;;;;5018793;28;20179;-82
2023/01/14 02:25:50;;;;;;;6.23;2.20;;;5.60;99.90;;;;;;5001133;28;20270;-82
2023/01/14 02:28:47;;;;;;;7.77;2.40;;;5.60;99.90;;;;;;5001113;28;20183;-83
2023/01/14 02:31:18;;;;;;;9.80;2.30;;;5.60;99.90;;;;;;5017888;28;20198;-82
2023/01/14 02:33:55;;;;;;;10.03;2.30;;;5.60;99.90;;;;;;5018617;28;20182;-82
2023/01/14 02:36:59;;;;;;;6.93;2.60;;;5.60;99.90;;;;;;5018777;28;20182;-82
2023/01/14 02:39:38;;;;;;;6.87;2.20;;;5.60;99.90;;;;;;5002090;28;20242;-82
2023/01/14 02:45:28;;;;;;;10.03;2.77;;;5.60;99.90;;;;;;5038374;28;20161;-82
2023/01/14 02:47:54;;;;;;;7.47;2.47;;;5.60;99.90;;;;;;5022645;28;20246;-82
2023/01/14 02:50:20;;;;;;;8.47;2.47;;;5.70;99.90;;;;;;5018284;28;20202;-82
2023/01/14 02:52:46;;;;;;;9.27;2.20;;;5.70;99.90;;;;;;5037867;28;20171;-83
2023/01/14 02:55:27;;;;;;;9.87;2.60;;;5.70;99.90;;;;;;5020329;28;20208;-82
2023/01/14 02:58:04;;;;;;;9.53;2.50;;;5.70;99.90;;;;;;5038143;28;20253;-84
2023/01/14 03:00:36;;;;;;;11.70;2.60;;;5.70;99.90;;;;;;5019611;28;20194;-83
2023/01/14 03:03:33;;;;;;;8.70;2.17;;;5.70;99.90;;;;;;5020397;28;20717;-83
2023/01/14 03:06:34;;;;;;;8.97;2.00;;;5.70;99.90;;;;;;5019955;28;20623;-83
2023/01/14 03:09:11;;;;;;;6.37;2.07;;;5.70;99.90;;;;;;4998547;28;20664;-82
2023/01/14 03:12:12;;;;;;;7.27;2.10;;;5.70;99.90;;;;;;5020175;28;20244;-83
2023/01/14 03:14:57;;;;;;;8.60;2.53;;;5.70;99.90;;;;;;4987295;28;20301;-83
2023/01/14 03:17:28;;;;;;;8.27;2.17;;;5.70;99.90;;;;;;5037653;28;20214;-83
2023/01/14 03:20:34;;;;;;;8.80;2.23;;;5.70;99.90;;;;;;5036963;28;20175;-83
2023/01/14 03:23:05;;;;;;;9.40;2.17;;;5.70;99.90;;;;;;4998008;28;20156;-82
2023/01/14 03:25:33;;;;;;;10.40;2.03;;;5.70;99.90;;;;;;4995871;28;20256;-83
2023/01/14 03:28:01;;;;;;;6.97;2.13;;;5.60;99.90;;;;;;4980396;28;20222;-82
2023/01/14 03:30:35;;;;;;;8.17;1.93;;;5.60;99.90;;;;;;4997446;28;20590;-83
2023/01/14 03:33:06;;;;;;;9.57;2.40;;;5.60;99.90;;;;;;4980126;28;20169;-82
2023/01/14 03:35:34;;;;;;;8.57;2.23;;;5.70;99.90;;;;;;4997636;28;20199;-82
2023/01/14 03:38:08;;;;;;;7.57;1.73;;;5.70;99.90;;;;;;4997559;28;20176;-83
2023/01/14 03:40:37;;;;;;;7.93;2.23;;;5.70;99.90;;;;;;4979416;28;20191;-83
2023/01/14 03:43:11;;;;;;;11.33;2.60;;;5.60;99.90;;;;;;4979456;28;20177;-83
2023/01/14 03:45:38;;;;;;;6.33;2.13;;;5.70;99.90;;;;;;4997043;28;20175;-83
2023/01/14 03:48:05;;;;;;;5.97;2.10;;;5.70;99.90;;;;;;4979877;28;20267;-83
2023/01/14 03:50:52;;;;;;;9.20;2.20;;;5.70;99.90;;;;;;5008089;28;20231;-83
2023/01/14 03:53:34;;;;;;;7.80;2.00;;;5.60;99.90;;;;;;5016155;28;20184;-83
2023/01/14 03:56:21;;;;;;;6.33;1.67;;;5.60;99.90;;;;;;5018842;28;20213;-82
2023/01/14 03:59:03;;;;;;;9.10;2.17;;;5.60;99.90;;;;;;5018675;28;20570;-83
2023/01/14 04:01:44;;;;;;;6.83;2.30;;;5.70;99.90;;;;;;5036906;28;20339;-83
2023/01/14 04:04:11;;;;;;;6.37;2.23;;;5.60;99.90;;;;;;5018738;28;20172;-82
2023/01/14 04:06:37;;;;;;;6.10;1.83;;;5.60;99.90;;;;;;5019296;28;20632;-82
2023/01/14 04:09:07;;;;;;;10.67;2.30;;;5.60;99.90;;;;;;5036763;28;20179;-81
2023/01/14 04:11:32;;;;;;;6.50;2.00;;;5.60;99.90;;;;;;5018622;28;20210;-82
2023/01/14 04:16:42;;;;;;;5.97;2.10;;;5.70;99.90;;;;;;5036971;28;20258;-82
2023/01/14 04:19:07;;;;;;;10.90;2.70;;;5.60;99.90;;;;;;5036628;28;20627;-83
2023/01/14 04:21:33;;;;;;;6.60;1.93;;;5.60;99.90;;;;;;5037045;28;20208;-82
2023/01/14 04:23:59;;;;;;;8.00;2.30;;;5.60;99.90;;;;;;5036459;28;20170;-82
2023/01/14 04:26:24;;;;;;;8.60;2.23;;;5.60;99.90;;;;;;5018826;28;20247;-83
2023/01/14 04:28:50;;;;;;;10.20;2.53;;;5.60;99.90;;;;;;5019118;28;20197;-82
2023/01/14 04:31:15;;;;;;;8.87;2.20;;;5.60;99.90;;;;;;5036210;28;20194;-82
2023/01/14 04:33:41;;;;;;;5.60;1.97;;;5.60;99.90;;;;;;5036394;28;20183;-82
2023/01/14 04:36:07;;;;;;;7.63;2.50;;;5.60;99.90;;;;;;5019064;28;20202;-82
2023/01/14 04:38:32;;;;;;;7.90;1.93;;;5.60;99.90;;;;;;5018400;28;20229;-82
2023/01/14 04:40:58;;;;;;;7.70;2.00;;;5.60;99.90;;;;;;5018304;28;20195;-82
2023/01/14 04:43:24;;;;;;;8.07;2.40;;;5.60;99.90;;;;;;5036021;28;20315;-82
2023/01/14 04:45:54;;;;;;;7.83;2.00;;;5.60;99.90;;;;;;5036225;28;20182;-83
2023/01/14 04:48:21;;;;;;;9.77;2.30;;;5.60;99.90;;;;;;5035922;28;20546;-83
2023/01/14 04:50:47;;;;;;;8.83;2.33;;;5.60;99.90;;;;;;5035927;28;20199;-82
2023/01/14 04:53:20;;;;;;;9.87;2.47;;;5.50;99.90;;;;;;5006399;28;20185;-82
2023/01/14 04:55:47;;;;;;;9.93;2.23;;;5.50;99.90;;;;;;4998370;28;20191;-82
2023/01/14 04:58:15;;;;;;;7.20;1.83;;;5.50;99.90;;;;;;4998874;28;20183;-82
2023/01/14 05:00:42;;;;;;;6.70;2.30;;;5.50;99.90;;;;;;4998413;28;20288;-82
2023/01/14 05:03:10;;;;;;;6.93;2.10;;;5.50;99.90;;;;;;5016238;28;20179;-82
2023/01/14 05:05:37;;;;;;;6.57;2.50;;;5.40;99.90;;;;;;4998313;28;20183;-82
2023/01/14 05:08:03;;;;;;;10.60;2.33;;;5.40;99.90;;;;;;4998250;28;20181;-83
2023/01/14 05:10:30;;;;;;;8.83;2.30;;;5.40;99.90;;;;;;4998072;28;20215;-82
2023/01/14 05:12:58;;;;;;;10.30;2.37;;;5.50;99.90;;;;;;4998730;28;20194;-83
2023/01/14 05:15:36;;;;;;;9.33;2.20;;;5.50;99.90;;;;;;5016029;28;20211;-82
2023/01/14 05:18:01;;;;;;;7.23;2.03;;;5.50;99.90;;;;;;5015788;28;20550;-83
2023/01/14 05:20:27;;;;;;;11.10;2.97;;;5.50;99.90;;;;;;5015745;28;20205;-82
2023/01/14 05:22:59;;;;;;;7.43;1.97;;;5.50;99.90;;;;;;4998498;28;20231;-82
2023/01/14 05:25:26;;;;;;;8.37;2.33;;;5.50;99.90;;;;;;4997604;28;20179;-82
2023/01/14 05:27:51;;;;;;;8.43;1.80;;;5.50;99.90;;;;;;4998080;28;20270;-83
2023/01/14 05:30:17;;;;;;;10.80;2.50;;;5.50;99.90;;;;;;5015681;28;20233;-83
2023/01/14 05:32:42;;;;;;;7.03;1.97;;;5.50;99.90;;;;;;5016450;28;20241;-82
2023/01/14 05:35:09;;;;;;;9.50;2.10;;;5.50;99.90;;;;;;4998201;28;20269;-82
2023/01/14 05:37:34;;;;;;;9.70;2.00;;;5.40;99.90;;;;;;4998327;28;20178;-82
2023/01/14 05:40:00;;;;;;;10.03;2.33;;;5.40;99.90;;;;;;4998529;28;20653;-82
2023/01/14 05:47:55;;;;;;;8.53;2.03;;;5.40;99.90;;;;;;5015808;28;20169;-82
2023/01/14 05:50:21;;;;;;;4.50;2.03;;;5.40;99.90;;;;;;4998138;28;20282;-83
2023/01/14 05:52:47;;;;;;;8.87;2.53;;;5.30;99.90;;;;;;4997861;28;20183;-83
2023/01/14 05:55:13;;;;;;;9.70;2.43;;;5.30;99.90;;;;;;4997477;28;20203;-82
2023/01/14 05:57:38;;;;;;;8.30;1.93;;;5.30;99.90;;;;;;5015119;28;20218;-83
2023/01/14 06:00:05;;;;;;;6.37;1.87;;;5.30;99.90;;;;;;5015004;28;20263;-82
2023/01/14 06:08:01;;;;;;;7.03;2.00;;;5.20;99.90;;;;;;5014520;28;20163;-81
2023/01/14 06:10:27;;;;;;;7.73;1.97;;;5.10;99.90;;;;;;5012053;28;20260;-80
2023/01/14 06:13:00;;;;;;;10.53;2.37;;;5.10;99.90;;;;;;5012827;28;20258;-81
2023/01/14 06:15:36;;;;;;;7.47;2.30;;;5.10;99.90;;;;;;5012364;28;20240;-80
2023/01/14 06:18:10;;;;;;;9.33;2.10;;;5.10;99.90;;;;;;4995218;28;20175;-80
2023/01/14 06:20:36;;;;;;;9.10;2.00;;;5.10;99.90;;;;;;4994884;28;20253;-81
2023/01/14 06:23:02;;;;;;;8.23;2.37;;;5.10;99.90;;;;;;4994859;28;20229;-80
2023/01/14 06:25:30;;;;;;;6.70;2.20;;;5.10;99.90;;;;;;4995130;28;20182;-80
2023/01/14 06:27:56;;;;;;;9.73;2.33;;;5.10;99.90;;;;;;4994850;28;20177;-81
2023/01/14 06:30:22;;;;;;;11.10;2.83;;;5.10;99.90;;;;;;5012250;28;20259;-81
2023/01/14 06:32:48;;;;;;;6.97;1.97;;;5.10;99.90;;;;;;4994940;28;20293;-81
2023/01/14 06:35:14;;;;;;;7.30;1.97;;;5.10;99.90;;;;;;5013299;28;20294;-81
2023/01/14 06:37:43;;;;;;;9.50;2.33;;;5.20;99.90;;;;;;5015936;28;20171;-82
2023/01/14 06:40:10;;;;;;;9.23;2.53;;;5.10;99.90;;;;;;5016103;28;20286;-81
2023/01/14 06:42:35;;;;;;;7.97;2.63;;;5.10;99.90;;;;;;4998615;28;20178;-81
2023/01/14 06:45:01;;;;;;;6.60;2.03;;;5.20;99.90;;;;;;4998778;28;20266;-81
2023/01/14 06:47:26;;;;;;;9.27;2.30;;;5.10;99.90;;;;;;4998083;28;20229;-81
2023/01/14 06:49:52;;;;;;;6.73;2.33;;;5.10;99.90;;;;;;4997592;28;20179;-81
2023/01/14 06:52:18;;;;;;;10.40;1.93;;;5.10;99.90;;;;;;4998249;28;20176;-81
2023/01/14 06:54:43;;;;;;;11.40;2.40;;;5.10;99.90;;;;;;5015491;28;20297;-80
2023/01/14 06:57:09;;;;;;;10.60;2.67;;;5.20;99.90;;;;;;4998224;28;20638;-82
2023/01/14 06:59:34;;;;;;;3.97;1.50;;;5.20;99.90;;;;;;5016081;28;20521;-82
2023/01/14 07:02:00;;;;;;;12.03;1.90;;;5.30;99.90;;;;;;5015397;28;20191;-81
2023/01/14 07:04:25;;;;;;;4.87;1.77;;;5.20;99.90;;;;;;5015211;28;20198;-81
2023/01/14 07:06:53;;;;;;;8.33;1.90;;;5.30;99.90;;;;;;4997887;28;20179;-81
2023/01/14 07:09:18;;;;;;;9.83;2.40;;;5.30;99.90;;;;;;4997837;28;20195;-80
2023/01/14 07:11:44;;;;;;;9.37;2.53;;;5.30;99.90;;;;;;4998872;28;20742;-79
2023/01/14 07:14:10;;;;;;;8.27;2.10;;;5.20;99.90;;;;;;5012235;28;20187;-80
2023/01/14 07:16:35;;;;;;;9.57;2.00;;;5.20;99.90;;;;;;4994383;28;20168;-80
2023/01/14 07:19:01;;;;;;;6.43;2.37;;;5.20;99.90;;;;;;4994000;28;20665;-80
2023/01/14 07:21:26;;;;;;;11.87;2.53;;;5.20;99.90;;;;;;4993876;28;20621;-82
2023/01/14 07:23:52;;;;;;;6.97;2.07;;;5.20;99.90;;;;;;4994250;28;20168;-81
2023/01/14 07:26:18;;;;;;;11.07;2.43;;;5.20;99.90;;;;;;4996109;28;20183;-83
2023/01/14 07:28:43;;;;;;;4.77;2.20;;;5.20;99.90;;;;;;4994822;28;20194;-84
2023/01/14 07:31:09;;;;;;;6.53;2.10;;;5.20;99.90;;;;;;4994550;28;20251;-83
2023/01/14 07:33:35;;;;;;;12.83;2.90;;;5.20;99.90;;;;;;4996541;28;20221;-80
2023/01/14 07:36:01;;;;;;;11.20;2.47;;;5.20;99.90;;;;;;4996401;28;20279;-83
2023/01/14 07:38:26;;;;;;;11.93;2.70;;;5.20;99.90;;;;;;4995872;28;20164;-82
2023/01/14 07:40:53;;;;;;;5.53;2.37;;;5.20;99.90;;;;;;4994659;28;20674;-78
2023/01/14 07:43:19;;;;;;;7.87;1.87;;;5.20;99.90;;;;;;4994564;28;20171;-78
2023/01/14 07:45:44;;;;;;;8.57;2.70;;;5.20;99.90;;;;;;4995844;28;20190;-79
2023/01/14 07:48:11;;;;;;;9.93;2.10;;;5.20;99.90;;;;;;4994427;28;20178;-79
2023/01/14 07:50:36;;;;;;;7.07;1.83;;;5.20;99.90;;;;;;4995321;28;20203;-79
2023/01/14 07:53:02;;;;;;;8.90;2.23;;;5.20;99.90;;;;;;4996047;28;20179;-78
2023/01/14 07:55:28;;;;;;;6.73;2.10;;;5.20;99.90;;;;;;4978043;28;20274;-78
2023/01/14 07:57:54;;;;;;;7.90;2.47;;;5.20;99.90;;;;;;4977332;28;20179;-80
2023/01/14 08:00:20;;;;;;;8.80;2.30;;;5.20;99.90;;;;;;4995080;28;20254;-79
2023/01/14 08:02:46;;;;;;;8.23;2.50;;;5.20;99.90;;;;;;4977256;28;20179;-80
2023/01/14 08:05:13;;;;;;;10.10;2.10;;;5.20;99.90;;;;;;4977398;28;20240;-80
2023/01/14 08:07:38;;;;;;;5.90;1.60;;;5.10;99.90;;;;;;4994820;28;20187;-80
2023/01/14 08:10:05;;;;;;;6.10;1.73;;;5.20;99.90;;;;;;4976861;28;20229;-80
2023/01/14 08:12:34;;;;;;;9.60;2.13;;;5.20;99.90;;;;;;4994861;28;20195;-79
2023/01/14 08:15:01;;;;;;;9.30;1.87;;;5.20;99.90;;;;;;4996605;28;20203;-80
2023/01/14 08:17:27;;;;;;;10.20;2.27;;;5.30;99.90;;;;;;4998823;28;20181;-79
2023/01/14 08:19:52;;;;;;;8.93;2.27;;;5.30;99.90;;;;;;4981623;28;20172;-79
2023/01/14 08:22:18;;;;;;;8.27;1.80;;;5.30;99.90;;;;;;4981559;28;20210;-80
2023/01/14 08:24:43;;;;;;;9.30;2.40;;;5.30;99.90;;;;;;4990797;28;20216;-79
2023/01/14 08:27:09;;;;;;;11.23;2.20;;;5.30;99.90;;;;;;5025438;28;20179;-78
2023/01/14 08:29:34;;;;;;;7.03;1.87;;;5.40;99.90;;;;;;5011604;28;20189;-79
2023/01/14 08:32:00;;;;;;;9.63;2.50;;;5.40;99.90;;;;;;5016164;28;20626;-83
2023/01/14 08:34:27;;;;;;;5.67;1.70;;;5.40;99.90;;;;;;5033087;28;20305;-83
2023/01/14 08:36:53;;;;;;;8.33;1.83;;;5.40;99.90;;;;;;5012896;28;20178;-82
2023/01/14 08:39:18;;;;;;;6.43;1.80;;;5.40;99.90;;;;;;5006244;28;20194;-81
2023/01/14 08:41:44;;;;;;;9.07;2.00;;;5.40;99.90;;;;;;5019261;28;20198;-81
2023/01/14 08:44:10;;;;;;;6.30;1.73;;;5.40;99.90;;;;;;5005827;28;20174;-82
2023/01/14 08:46:37;;;;;;;9.47;1.83;;;5.40;99.90;;;;;;5031017;28;20179;-82
2023/01/14 08:49:03;;;;;;;8.97;2.47;;;5.40;99.90;;;;;;5032999;28;20197;-82
2023/01/14 08:51:30;;;;;;;9.03;2.27;;;5.40;99.90;;;;;;5032722;28;20221;-82
2023/01/14 08:53:58;;;;;;;9.10;2.17;;;5.50;99.90;;;;;;5014499;28;20181;-82
2023/01/14 08:56:24;;;;;;;7.33;1.90;;;5.50;99.90;;;;;;5032863;28;20232;-82
2023/01/14 08:58:50;;;;;;;10.43;2.47;;;5.50;99.90;;;;;;5014574;28;20206;-80
2023/01/14 09:01:15;;;;;;;7.57;2.20;;;5.40;99.90;;;;;;5014612;28;20201;-82
2023/01/14 09:03:42;;;;;;;11.13;2.10;;;5.40;99.90;;;;;;5015239;28;20177;-82
2023/01/14 09:06:11;;;;;;;11.67;2.30;;;5.40;99.90;;;;;;5033038;28;20234;-82
2023/01/14 09:17:20;;;;;;;8.23;2.17;;;5.50;99.90;;;;;;5033435;28;20248;-82
2023/01/14 09:19:49;;;;;;;7.33;2.47;;;5.60;99.90;;;;;;5032753;28;20182;-83
2023/01/14 09:22:21;;;;;;;9.03;2.40;;;5.60;99.90;;;;;;5015592;28;20571;-82
2023/01/14 09:24:47;;;;;;;7.80;1.90;;;5.60;99.90;;;;;;5033015;28;20220;-82
2023/01/14 09:27:13;;;;;;;7.43;2.33;;;5.60;99.90;;;;;;5031920;28;20169;-82
2023/01/14 09:29:38;;;;;;;6.80;1.97;;;5.60;99.90;;;;;;5014287;28;20253;-83
2023/01/14 09:32:08;;;;;;;8.67;2.30;;;5.60;99.90;;;;;;5031931;28;20194;-82
2023/01/14 09:34:34;;;;;;;7.37;1.97;;;5.60;99.90;;;;;;5014061;28;20206;-82
2023/01/14 09:36:59;;;;;;;6.57;2.60;;;5.60;99.90;;;;;;5014555;28;20236;-82
2023/01/14 09:39:25;;;;;;;8.97;2.40;;;5.60;99.90;;;;;;5014510;28;20225;-82
2023/01/14 09:42:28;;;;;;;5.73;1.93;;;5.70;99.90;;;;;;5014045;28;20194;-82
2023/01/14 09:45:24;;;;;;;7.43;1.80;;;5.70;99.90;;;;;;5031982;28;20174;-82
2023/01/14 09:47:51;;;;;;;10.33;2.00;;;5.70;99.90;;;;;;5006272;28;20189;-82
2023/01/14 09:50:20;;;;;;;8.63;1.93;;;5.60;99.90;;;;;;5013860;28;20218;-82
2023/01/14 09:52:49;;;;;;;9.07;2.27;;;5.60;99.90;;;;;;5031893;28;20170;-82
2023/01/14 09:55:36;;;;;;;7.63;1.87;;;5.60;99.90;;;;;;5031650;28;20194;-83
2023/01/14 09:58:26;;;;;;;10.53;1.90;;;5.60;99.90;;;;;;5014069;28;20180;-82
2023/01/14 10:00:57;;;;;;;8.23;2.23;;;5.50;99.90;;;;;;5031676;28;20228;-82
2023/01/14 10:03:37;;;;;;;5.77;1.90;;;5.50;99.90;;;;;;5013942;28;20166;-82
2023/01/14 10:06:17;;;;;;;5.53;2.60;;;5.40;99.90;;;;;;5031865;28;20220;-82
2023/01/14 10:08:54;;;;;;;8.10;2.07;;;5.40;99.90;;;;;;5014299;28;20202;-82
2023/01/14 10:11:22;;;;;;;9.13;2.17;;;5.40;99.90;;;;;;5016067;28;20289;-82
2023/01/14 10:13:54;;;;;;;6.47;2.27;;;5.40;99.90;;;;;;5035484;28;20201;-83
2023/01/14 10:16:27;;;;;;;7.70;2.17;;;5.40;99.90;;;;;;5035734;28;20195;-82
2023/01/14 10:19:04;;;;;;;8.37;1.93;;;5.40;99.90;;;;;;5035486;28;20175;-82
2023/01/14 10:21:42;;;;;;;7.40;2.33;;;5.40;99.90;;;;;;5017502;28;20217;-82
2023/01/14 10:24:13;;;;;;;8.83;2.40;;;5.40;99.90;;;;;;5017645;28;20178;-80
2023/01/14 10:26:40;;;;;;;6.67;2.10;;;5.40;99.90;;;;;;5035380;28;20185;-83
2023/01/14 10:29:17;;;;;;;5.67;2.63;;;5.50;99.90;;;;;;5017656;28;20544;-81
2023/01/14 10:32:03;;;;;;;4.50;1.60;;;5.60;99.90;;;;;;5017392;28;20190;-81
2023/01/14 10:34:39;;;;;;;3.50;1.70;;;5.60;99.90;;;;;;5017134;28;20174;-83
2023/01/14 10:37:10;;;;;;;4.97;1.70;;;5.50;99.90;;;;;;5035538;28;20182;-81
2023/01/14 10:39:38;;;;;;;5.03;1.80;;;5.50;99.90;;;;;;5035294;28;20178;-78
2023/01/14 10:42:05;;;;;;;8.23;1.90;;;5.50;99.90;;;;;;5023149;28;20205;-82
2023/01/14 10:44:33;;;;;;;3.60;1.60;;;5.50;99.90;;;;;;5007369;28;20188;-82
2023/01/14 10:47:12;;;;;;;5.20;2.20;;;5.60;99.90;;;;;;5015268;28;20167;-81
2023/01/14 10:49:52;;;;;;;6.33;1.70;;;5.60;99.90;;;;;;5015451;28;20186;-80
2023/01/14 10:52:20;;;;;;;3.77;1.53;;;5.60;99.90;;;;;;5013899;28;20202;-82
2023/01/14 10:55:12;;;;;;;4.33;1.70;;;5.50;99.90;;;;;;4987639;28;20266;-81
2023/01/14 10:57:45;;;;;;;6.00;1.73;;;5.50;99.90;;;;;;4990160;28;20226;-82
2023/01/14 11:00:30;;;;;;;2.77;1.53;;;5.50;99.90;;;;;;4997389;28;20235;-83
2023/01/14 11:02:57;;;;;;;3.73;1.67;;;5.50;99.90;;;;;;5014996;28;20183;-83
2023/01/14 11:05:39;;;;;;;9.20;1.70;;;5.50;99.90;;;;;;4997601;28;20262;-82
2023/01/14 11:08:14;;;;;;;5.33;1.60;;;5.60;99.90;;;;;;4990257;28;20180;-79
2023/01/14 11:10:40;;;;;;;4.57;1.50;;;5.60;99.90;;;;;;4995188;28;20210;-81
2023/01/14 11:13:29;;;;;;;3.47;1.47;;;5.70;99.90;;;;;;4995520;28;20273;-82
2023/01/14 11:15:55;;;;;;;2.20;1.30;;;5.70;99.90;;;;;;4996045;28;20213;-85
2023/01/14 11:18:31;;;;;;;6.30;1.77;;;5.80;99.90;;;;;;4978964;28;20172;-84
2023/01/14 11:21:15;;;;;;;7.37;1.83;;;5.80;99.90;;;;;;4977842;28;20199;-81
2023/01/14 11:23:44;;;;;;;6.50;1.80;;;5.80;99.90;;;;;;4996538;28;20156;-85
2023/01/14 11:26:21;;;;;;;4.17;1.57;;;5.80;99.90;;;;;;4996268;28;20179;-81
2023/01/14 11:28:49;;;;;;;5.03;1.47;;;5.80;99.90;;;;;;4978492;28;20185;-81
2023/01/14 11:31:17;;;;;;;4.13;1.80;;;5.80;99.90;;;;;;4978086;28;20246;-83
2023/01/14 11:33:51;;;;;;;4.23;1.50;;;5.80;99.90;;;;;;4996125;28;20172;-84
2023/01/14 11:36:24;;;;;;;5.53;1.47;;;5.80;99.90;;;;;;4995265;28;20611;-83
2023/01/14 11:38:51;;;;;;;4.40;1.50;;;5.80;99.90;;;;;;4979096;28;20172;-82
2023/01/14 11:41:29;;;;;;;3.37;1.30;;;5.80;99.90;;;;;;4997759;28;20250;-82
2023/01/14 11:44:04;;;;;;;2.80;1.50;;;5.90;99.90;;;;;;4980479;28;20218;-82
2023/01/14 11:46:33;;;;;;;4.33;1.37;;;5.90;99.90;;;;;;4979637;28;20180;-81
2023/01/14 11:49:19;;;;;;;6.63;1.50;;;5.90;99.90;;;;;;4979529;28;20186;-83
2023/01/14 11:52:00;;;;;;;3.90;1.63;;;6.00;99.90;;;;;;4977776;28;20223;-83
2023/01/14 11:54:38;;;;;;;3.77;1.37;;;6.10;99.90;;;;;;4978136;28;20181;-82
2023/01/14 11:57:08;;;;;;;4.83;2.00;;;6.10;99.90;;;;;;4995911;28;20203;-82
2023/01/14 11:59:38;;;;;;;3.17;1.63;;;6.20;99.90;;;;;;4978942;28;20172;-82
2023/01/14 12:02:24;;;;;;;8.57;1.60;;;6.20;99.90;;;;;;4994294;28;20223;-82
2023/01/14 12:05:04;;;;;;;4.43;1.60;;;6.30;99.90;;;;;;4976779;28;20177;-82
2023/01/14 12:07:34;;;;;;;2.33;1.23;;;6.30;99.90;;;;;;4981070;28;20241;-82
2023/01/14 12:10:21;;;;;;;5.30;1.77;;;6.30;99.90;;;;;;5005206;28;20199;-82
2023/01/14 12:18:47;;;;;;;2.47;1.60;;;6.40;99.90;;;;;;4994146;28;20188;-82
2023/01/14 12:21:20;;;;;;;3.07;1.50;;;6.40;99.90;;;;;;4981633;28;20199;-82
2023/01/14 12:23:51;;;;;;;3.27;1.40;;;6.50;99.90;;;;;;4991047;28;20207;-82
2023/01/14 12:26:23;;;;;;;2.67;1.23;;;6.50;99.90;;;;;;4993862;28;20183;-83
2023/01/14 12:29:00;;;;;;;4.60;1.30;;;6.60;99.90;;;;;;4976506;28;20239;-82
2023/01/14 12:31:33;;;;;;;3.00;1.20;;;6.60;99.90;;;;;;4976280;28;20196;-82
2023/01/14 12:34:22;;;;;;;3.13;1.40;;;6.70;99.90;;;;;;4993349;28;20186;-82
2023/01/14 12:37:02;;;;;;;3.87;1.27;;;6.80;99.90;;;;;;4964290;28;20198;-82
2023/01/14 12:45:46;;;;;;;1.47;1.03;;;6.80;99.90;;;;;;4993585;28;20179;-82
2023/01/14 12:48:20;;;;;;;5.63;1.70;;;6.90;99.90;;;;;;4994075;28;20669;-82
2023/01/14 12:50:49;;;;;;;3.33;1.40;;;6.80;99.90;;;;;;4993225;28;20189;-82
2023/01/14 12:53:18;;;;;;;2.63;1.60;;;6.80;99.90;;;;;;4994949;28;20206;-81
2023/01/14 12:55:47;;;;;;;2.47;1.30;;;6.80;99.90;;;;;;5003409;28;20670;-81
2023/01/14 12:58:31;;;;;;;5.83;1.37;;;6.90;99.90;;;;;;4990689;28;20191;-82
2023/01/14 13:01:07;;;;;;;4.20;1.30;;;6.80;99.90;;;;;;4983543;28;20194;-81
2023/01/14 13:03:48;;;;;;;2.73;1.60;;;6.90;99.90;;;;;;4975814;28;20173;-81
2023/01/14 13:06:22;;;;;;;3.60;1.27;;;6.90;99.90;;;;;;4975791;28;20178;-81
2023/01/14 13:08:51;;;;;;;2.77;1.10;;;7.00;99.90;;;;;;4975777;28;20598;-81
2023/01/14 13:11:27;;;;;;;2.43;1.03;;;7.00;99.90;;;;;;5020908;23;20219;-86
2023/01/14 13:13:56;;;;;;;1.57;0.97;;;7.00;99.90;;;;;;5034405;28;20178;-86
2023/01/14 13:16:38;;;;;;;2.23;0.93;;;7.00;99.90;;;;;;5051758;28;20252;-86
2023/01/14 13:19:25;;;;;;;1.97;1.10;;;7.00;99.90;;;;;;5051980;28;20180;-86
2023/01/14 13:22:00;;;;;;;1.77;1.00;;;7.10;99.90;;;;;;5039104;28;20558;-86
2023/01/14 13:24:35;;;;;;;2.00;1.00;;;7.00;99.90;;;;;;5014546;28;20274;-87
2023/01/14 13:27:22;;;;;;;3.10;1.07;;;7.10;99.90;;;;;;5032116;28;20177;-85
2023/01/14 13:29:47;;;;;;;1.73;1.20;;;7.10;99.90;;;;;;5031831;28;20230;-84
2023/01/14 13:32:55;;;;;;;2.80;1.10;;;7.00;99.90;;;;;;5032422;28;20287;-84
2023/01/14 13:35:22;;;;;;;1.73;1.00;;;6.90;99.90;;;;;;4990755;28;20599;-84
2023/01/14 13:37:49;;;;;;;1.40;0.83;;;7.00;99.90;;;;;;5032520;28;20174;-83
2023/01/14 13:40:20;;;;;;;1.43;0.90;;;6.90;99.90;;;;;;5014557;28;20168;-82
2023/01/14 13:42:55;;;;;;;1.93;1.10;;;6.90;99.90;;;;;;5014909;28;20180;-82
2023/01/14 13:45:26;;;;;;;5.10;1.20;;;6.90;99.90;;;;;;5012029;28;20229;-85
2023/01/14 13:47:54;;;;;;;2.30;1.00;;;6.80;99.90;;;;;;5028328;28;20192;-85
2023/01/14 13:50:25;;;;;;;2.80;0.97;;;6.80;99.90;;;;;;5002006;28;20181;-84
2023/01/14 13:53:02;;;;;;;2.03;1.17;;;6.80;99.90;;;;;;5004428;28;20179;-84